Iver Bright — ZDKU4 — position and weather

sailwx.info

Track history (hours):
 
Tides and Currents Weather Stations Pressure Air Temp Water Temp Dewpoint Dewpoint Depression Visibility Wind Speed Wind Dir Waves Ship Positions

Iver Bright

Last reported at 2014-Aug-23 19:33 UTC. Time now 2014-Aug-23 19:47 UTC.
Position N 31°21' E 032°20'.

Length 111 m; draft 7.2 m.

Type: Tanker. MMSI: 236111811.

Date/timePositionNaut miles runAvg speedWind from/ knotsBaromVisibWave heightAir tempDewpointWater temp
2014-Aug-23 19:33N 31°21' E 032°20'18511.6
2014-Aug-23 03:33N 32°44' E 029°05'1211.6
2014-Aug-23 02:32N 32°49' E 028°51'1311.5
2014-Aug-23 01:24N 32°54' E 028°37'5811.7
2014-Aug-22 20:27N 33°15' E 027°33'3813.0
2014-Aug-22 17:32N 33°29' E 026°51'1513.1
2014-Aug-22 16:24N 33°34' E 026°34'  
2014-Aug-17 02:24N 36°23' E 015°08'1212.9
2014-Aug-17 01:27N 36°12' E 014°60'1313.4
2014-Aug-17 00:27N 36°01' E 014°51'9 2.3
2014-Aug-16 20:22N 35°53' E 014°46'0 0.0
2014-Aug-16 18:31N 35°53' E 014°46'0 0.1
2014-Aug-16 17:31N 35°53' E 014°46'4 4.3
2014-Aug-16 16:33N 35°51' E 014°51'1212.3
2014-Aug-16 15:33N 35°48' E 015°06'1313.1
2014-Aug-16 14:33N 35°44' E 015°21'2813.3
2014-Aug-16 12:26N 35°37' E 015°55'2713.6
2014-Aug-16 10:26N 35°30' E 016°27'23413.1
2014-Aug-15 16:33N 34°28' E 021°02'30312.1
2014-Aug-14 15:33N 33°07' E 026°54'1212.3
2014-Aug-14 14:33N 33°04' E 027°08'3912.9
2014-Aug-14 11:33N 32°54' E 027°53'1513.2
2014-Aug-14 10:27N 32°50' E 028°10'2513.1
2014-Aug-14 08:32N 32°43' E 028°38'7213.3
2014-Aug-14 03:09N 32°24' E 030°00'812.9
2014-Aug-14 02:33N 32°22' E 030°09'5012.4
2014-Aug-13 22:33N 32°05' E 031°04'1812.6
2014-Aug-13 21:07N 31°58' E 031°24'712.4
2014-Aug-13 20:33N 31°56' E 031°32'1212.3
2014-Aug-13 19:33N 31°51' E 031°45'  
Track history (hours):
 
Tides and Currents Weather Stations Pressure Air Temp Water Temp Dewpoint Dewpoint Depression Visibility Wind Speed Wind Dir Waves Ship Positions

Iver Bright

Last reported at 2014-Aug-23 19:33 UTC. Time now 2014-Aug-23 19:47 UTC.
Position N 31°21' E 032°20'.

Length 111 m; draft 7.2 m.

Type: Tanker. MMSI: 236111811.

Date/timePositionNaut miles runAvg speedWind from/ knotsBaromVisibWave heightAir tempDewpointWater temp
2014-Aug-23 19:33N 31°21' E 032°20'18511.6
2014-Aug-23 03:33N 32°44' E 029°05'1211.6
2014-Aug-23 02:32N 32°49' E 028°51'1311.5
2014-Aug-23 01:24N 32°54' E 028°37'5811.7
2014-Aug-22 20:27N 33°15' E 027°33'3813.0
2014-Aug-22 17:32N 33°29' E 026°51'1513.1
2014-Aug-22 16:24N 33°34' E 026°34'  
2014-Aug-17 02:24N 36°23' E 015°08'1212.9
2014-Aug-17 01:27N 36°12' E 014°60'1313.4
2014-Aug-17 00:27N 36°01' E 014°51'9 2.3
2014-Aug-16 20:22N 35°53' E 014°46'0 0.0
2014-Aug-16 18:31N 35°53' E 014°46'0 0.1
2014-Aug-16 17:31N 35°53' E 014°46'4 4.3
2014-Aug-16 16:33N 35°51' E 014°51'1212.3
2014-Aug-16 15:33N 35°48' E 015°06'1313.1
2014-Aug-16 14:33N 35°44' E 015°21'2813.3
2014-Aug-16 12:26N 35°37' E 015°55'2713.6
2014-Aug-16 10:26N 35°30' E 016°27'23413.1
2014-Aug-15 16:33N 34°28' E 021°02'30312.1
2014-Aug-14 15:33N 33°07' E 026°54'1212.3
2014-Aug-14 14:33N 33°04' E 027°08'3912.9
2014-Aug-14 11:33N 32°54' E 027°53'1513.2
2014-Aug-14 10:27N 32°50' E 028°10'2513.1
2014-Aug-14 08:32N 32°43' E 028°38'7213.3
2014-Aug-14 03:09N 32°24' E 030°00'812.9
2014-Aug-14 02:33N 32°22' E 030°09'5012.4
2014-Aug-13 22:33N 32°05' E 031°04'1812.6
2014-Aug-13 21:07N 31°58' E 031°24'712.4
2014-Aug-13 20:33N 31°56' E 031°32'1212.3
2014-Aug-13 19:33N 31°51' E 031°45'  

Dump ship's entire track history